sensor_id;sensor_type;location;lat;lon;timestamp;temperature;humidity
20998;DHT22;10657;51.276;6.390;2022-12-24T00:01:03;11.00;99.90
20998;DHT22;10657;51.276;6.390;2022-12-24T00:03:29;11.00;99.90
20998;DHT22;10657;51.276;6.390;2022-12-24T00:05:57;10.90;99.90
20998;DHT22;10657;51.276;6.390;2022-12-24T00:08:23;10.90;99.90
20998;DHT22;10657;51.276;6.390;2022-12-24T00:10:51;10.90;99.90
20998;DHT22;10657;51.276;6.390;2022-12-24T00:13:19;10.80;99.90
20998;DHT22;10657;51.276;6.390;2022-12-24T00:15:46;10.80;99.90
20998;DHT22;10657;51.276;6.390;2022-12-24T00:18:13;10.80;99.90
20998;DHT22;10657;51.276;6.390;2022-12-24T00:20:40;10.80;99.90
20998;DHT22;10657;51.276;6.390;2022-12-24T00:23:07;10.70;99.90
20998;DHT22;10657;51.276;6.390;2022-12-24T00:25:33;10.70;99.90
20998;DHT22;10657;51.276;6.390;2022-12-24T00:28:00;10.60;99.90
20998;DHT22;10657;51.276;6.390;2022-12-24T00:30:26;10.60;99.90
20998;DHT22;10657;51.276;6.390;2022-12-24T00:32:53;10.60;99.90
20998;DHT22;10657;51.276;6.390;2022-12-24T00:35:20;10.60;99.90
20998;DHT22;10657;51.276;6.390;2022-12-24T00:37:47;10.50;99.90
20998;DHT22;10657;51.276;6.390;2022-12-24T00:40:15;10.50;99.90
20998;DHT22;10657;51.276;6.390;2022-12-24T00:42:42;10.50;99.90
20998;DHT22;10657;51.276;6.390;2022-12-24T00:45:10;10.60;99.90
20998;DHT22;10657;51.276;6.390;2022-12-24T00:47:37;10.60;99.90
20998;DHT22;10657;51.276;6.390;2022-12-24T00:50:04;10.50;99.90
20998;DHT22;10657;51.276;6.390;2022-12-24T00:52:31;10.60;99.90
20998;DHT22;10657;51.276;6.390;2022-12-24T00:54:58;10.60;99.90
20998;DHT22;10657;51.276;6.390;2022-12-24T00:57:24;10.60;99.90
20998;DHT22;10657;51.276;6.390;2022-12-24T00:59:51;10.60;99.90
20998;DHT22;10657;51.276;6.390;2022-12-24T01:02:18;10.60;99.90
20998;DHT22;10657;51.276;6.390;2022-12-24T01:04:45;10.60;99.90
20998;DHT22;10657;51.276;6.390;2022-12-24T01:07:30;10.60;99.90
20998;DHT22;10657;51.276;6.390;2022-12-24T01:09:57;10.60;99.90
20998;DHT22;10657;51.276;6.390;2022-12-24T01:12:24;10.60;99.90
20998;DHT22;10657;51.276;6.390;2022-12-24T01:14:50;10.60;99.90
20998;DHT22;10657;51.276;6.390;2022-12-24T01:17:17;10.50;99.90
20998;DHT22;10657;51.276;6.390;2022-12-24T01:19:44;10.50;99.90
20998;DHT22;10657;51.276;6.390;2022-12-24T01:22:10;10.50;99.90
20998;DHT22;10657;51.276;6.390;2022-12-24T01:24:39;10.50;99.90
20998;DHT22;10657;51.276;6.390;2022-12-24T01:27:06;10.40;99.90
20998;DHT22;10657;51.276;6.390;2022-12-24T01:29:33;10.30;99.90
20998;DHT22;10657;51.276;6.390;2022-12-24T01:32:00;10.30;99.90
20998;DHT22;10657;51.276;6.390;2022-12-24T01:34:26;10.30;99.90
20998;DHT22;10657;51.276;6.390;2022-12-24T01:36:53;10.30;99.90
20998;DHT22;10657;51.276;6.390;2022-12-24T01:39:20;10.20;99.90
20998;DHT22;10657;51.276;6.390;2022-12-24T01:41:46;10.20;99.90
20998;DHT22;10657;51.276;6.390;2022-12-24T01:44:34;10.20;99.90
20998;DHT22;10657;51.276;6.390;2022-12-24T01:47:19;10.20;99.90
20998;DHT22;10657;51.276;6.390;2022-12-24T01:49:51;10.20;99.90
20998;DHT22;10657;51.276;6.390;2022-12-24T01:52:23;10.10;99.90
20998;DHT22;10657;51.276;6.390;2022-12-24T01:54:59;10.10;99.90
20998;DHT22;10657;51.276;6.390;2022-12-24T01:57:31;10.10;99.90
20998;DHT22;10657;51.276;6.390;2022-12-24T02:00:02;10.10;99.90
20998;DHT22;10657;51.276;6.390;2022-12-24T02:02:30;10.10;99.90
20998;DHT22;10657;51.276;6.390;2022-12-24T02:05:14;10.10;99.90
20998;DHT22;10657;51.276;6.390;2022-12-24T02:07:42;10.10;99.90
20998;DHT22;10657;51.276;6.390;2022-12-24T02:10:11;10.10;99.90
20998;DHT22;10657;51.276;6.390;2022-12-24T02:12:38;10.10;99.90
20998;DHT22;10657;51.276;6.390;2022-12-24T02:15:09;10.10;99.90
20998;DHT22;10657;51.276;6.390;2022-12-24T02:18:06;10.00;99.90
20998;DHT22;10657;51.276;6.390;2022-12-24T02:23:55;10.10;99.90
20998;DHT22;10657;51.276;6.390;2022-12-24T02:29:26;10.00;99.90
20998;DHT22;10657;51.276;6.390;2022-12-24T02:32:10;10.10;99.90
20998;DHT22;10657;51.276;6.390;2022-12-24T02:34:44;10.00;99.90
20998;DHT22;10657;51.276;6.390;2022-12-24T02:37:21;10.00;99.90
20998;DHT22;10657;51.276;6.390;2022-12-24T02:39:56;10.10;99.90
20998;DHT22;10657;51.276;6.390;2022-12-24T02:42:28;10.10;99.90
20998;DHT22;10657;51.276;6.390;2022-12-24T02:45:02;10.10;99.90
20998;DHT22;10657;51.276;6.390;2022-12-24T02:47:29;10.20;99.90
20998;DHT22;10657;51.276;6.390;2022-12-24T02:50:01;10.20;99.90
20998;DHT22;10657;51.276;6.390;2022-12-24T02:52:37;10.10;99.90
20998;DHT22;10657;51.276;6.390;2022-12-24T02:55:18;10.10;99.90
20998;DHT22;10657;51.276;6.390;2022-12-24T02:58:13;10.20;99.90
20998;DHT22;10657;51.276;6.390;2022-12-24T03:07:02;10.30;99.90
20998;DHT22;10657;51.276;6.390;2022-12-24T03:12:21;10.30;99.90
20998;DHT22;10657;51.276;6.390;2022-12-24T03:14:49;10.30;99.90
20998;DHT22;10657;51.276;6.390;2022-12-24T03:17:18;10.30;99.90
20998;DHT22;10657;51.276;6.390;2022-12-24T03:19:45;10.30;99.90
20998;DHT22;10657;51.276;6.390;2022-12-24T03:22:12;10.30;99.90
20998;DHT22;10657;51.276;6.390;2022-12-24T03:24:41;10.30;99.90
20998;DHT22;10657;51.276;6.390;2022-12-24T03:27:08;10.30;99.90
20998;DHT22;10657;51.276;6.390;2022-12-24T03:29:38;10.30;99.90
20998;DHT22;10657;51.276;6.390;2022-12-24T03:32:05;10.30;99.90
20998;DHT22;10657;51.276;6.390;2022-12-24T03:34:32;10.30;99.90
20998;DHT22;10657;51.276;6.390;2022-12-24T03:36:59;10.30;99.90
20998;DHT22;10657;51.276;6.390;2022-12-24T03:39:25;10.20;99.90
20998;DHT22;10657;51.276;6.390;2022-12-24T03:41:52;10.20;99.90
20998;DHT22;10657;51.276;6.390;2022-12-24T03:44:19;10.20;99.90
20998;DHT22;10657;51.276;6.390;2022-12-24T03:46:45;10.20;99.90
20998;DHT22;10657;51.276;6.390;2022-12-24T03:49:12;10.20;99.90
20998;DHT22;10657;51.276;6.390;2022-12-24T03:51:38;10.20;99.90
20998;DHT22;10657;51.276;6.390;2022-12-24T03:54:05;10.20;99.90
20998;DHT22;10657;51.276;6.390;2022-12-24T03:56:32;10.20;99.90
20998;DHT22;10657;51.276;6.390;2022-12-24T03:58:58;10.20;99.90
20998;DHT22;10657;51.276;6.390;2022-12-24T04:01:25;10.20;99.90
20998;DHT22;10657;51.276;6.390;2022-12-24T04:06:19;10.20;99.90
20998;DHT22;10657;51.276;6.390;2022-12-24T04:08:46;10.20;99.90
20998;DHT22;10657;51.276;6.390;2022-12-24T04:11:14;10.20;99.90
20998;DHT22;10657;51.276;6.390;2022-12-24T04:13:41;10.20;99.90
20998;DHT22;10657;51.276;6.390;2022-12-24T04:16:11;10.20;99.90
20998;DHT22;10657;51.276;6.390;2022-12-24T04:18:39;10.20;99.90
20998;DHT22;10657;51.276;6.390;2022-12-24T04:21:07;10.10;99.90
20998;DHT22;10657;51.276;6.390;2022-12-24T04:23:36;10.10;99.90
20998;DHT22;10657;51.276;6.390;2022-12-24T04:26:04;10.10;99.90
20998;DHT22;10657;51.276;6.390;2022-12-24T04:28:32;10.10;99.90
20998;DHT22;10657;51.276;6.390;2022-12-24T04:31:00;10.10;99.90
20998;DHT22;10657;51.276;6.390;2022-12-24T04:33:27;10.10;99.90
20998;DHT22;10657;51.276;6.390;2022-12-24T04:35:57;10.10;99.90
20998;DHT22;10657;51.276;6.390;2022-12-24T04:38:23;10.10;99.90
20998;DHT22;10657;51.276;6.390;2022-12-24T04:41:02;10.10;99.90
20998;DHT22;10657;51.276;6.390;2022-12-24T04:43:29;10.10;99.90
20998;DHT22;10657;51.276;6.390;2022-12-24T04:46:02;10.10;99.90
20998;DHT22;10657;51.276;6.390;2022-12-24T04:48:30;10.10;99.90
20998;DHT22;10657;51.276;6.390;2022-12-24T04:50:56;10.10;99.90
20998;DHT22;10657;51.276;6.390;2022-12-24T04:53:23;10.00;99.90
20998;DHT22;10657;51.276;6.390;2022-12-24T04:55:49;10.10;99.90
20998;DHT22;10657;51.276;6.390;2022-12-24T04:58:16;10.10;99.90
20998;DHT22;10657;51.276;6.390;2022-12-24T05:00:43;10.10;99.90
20998;DHT22;10657;51.276;6.390;2022-12-24T05:03:09;10.10;99.90
20998;DHT22;10657;51.276;6.390;2022-12-24T05:05:36;10.10;99.90
20998;DHT22;10657;51.276;6.390;2022-12-24T05:08:03;10.10;99.90
20998;DHT22;10657;51.276;6.390;2022-12-24T05:10:29;10.10;99.90
20998;DHT22;10657;51.276;6.390;2022-12-24T05:12:56;10.10;99.90
20998;DHT22;10657;51.276;6.390;2022-12-24T05:15:23;10.20;99.90
20998;DHT22;10657;51.276;6.390;2022-12-24T05:17:50;10.10;99.90
20998;DHT22;10657;51.276;6.390;2022-12-24T05:20:17;10.20;99.90
20998;DHT22;10657;51.276;6.390;2022-12-24T05:22:43;10.10;99.90
20998;DHT22;10657;51.276;6.390;2022-12-24T05:25:33;10.10;99.90
20998;DHT22;10657;51.276;6.390;2022-12-24T05:28:20;10.20;99.90
20998;DHT22;10657;51.276;6.390;2022-12-24T05:30:46;10.20;99.90
20998;DHT22;10657;51.276;6.390;2022-12-24T05:33:13;10.20;99.90
20998;DHT22;10657;51.276;6.390;2022-12-24T05:35:40;10.10;99.90
20998;DHT22;10657;51.276;6.390;2022-12-24T05:38:06;10.20;99.90
20998;DHT22;10657;51.276;6.390;2022-12-24T05:40:33;10.20;99.90
20998;DHT22;10657;51.276;6.390;2022-12-24T05:42:59;10.20;99.90
20998;DHT22;10657;51.276;6.390;2022-12-24T05:45:27;10.20;99.90
20998;DHT22;10657;51.276;6.390;2022-12-24T05:47:54;10.20;99.90
20998;DHT22;10657;51.276;6.390;2022-12-24T05:50:20;10.20;99.90
20998;DHT22;10657;51.276;6.390;2022-12-24T05:52:47;10.20;99.90
20998;DHT22;10657;51.276;6.390;2022-12-24T05:55:13;10.20;99.90
20998;DHT22;10657;51.276;6.390;2022-12-24T05:57:40;10.20;99.90
20998;DHT22;10657;51.276;6.390;2022-12-24T06:00:08;10.20;99.90
20998;DHT22;10657;51.276;6.390;2022-12-24T06:02:34;10.20;99.90
20998;DHT22;10657;51.276;6.390;2022-12-24T06:05:01;10.20;99.90
20998;DHT22;10657;51.276;6.390;2022-12-24T06:07:28;10.20;99.90
20998;DHT22;10657;51.276;6.390;2022-12-24T06:09:54;10.20;99.90
20998;DHT22;10657;51.276;6.390;2022-12-24T06:12:21;10.20;99.90
20998;DHT22;10657;51.276;6.390;2022-12-24T06:14:48;10.30;99.90
20998;DHT22;10657;51.276;6.390;2022-12-24T06:17:14;10.20;99.90
20998;DHT22;10657;51.276;6.390;2022-12-24T06:19:41;10.30;99.90
20998;DHT22;10657;51.276;6.390;2022-12-24T06:22:07;10.30;99.90
20998;DHT22;10657;51.276;6.390;2022-12-24T06:24:34;10.20;99.90
20998;DHT22;10657;51.276;6.390;2022-12-24T06:27:01;10.20;99.90
20998;DHT22;10657;51.276;6.390;2022-12-24T06:29:28;10.20;99.90
20998;DHT22;10657;51.276;6.390;2022-12-24T06:31:54;10.10;99.90
20998;DHT22;10657;51.276;6.390;2022-12-24T06:34:21;10.10;99.90
20998;DHT22;10657;51.276;6.390;2022-12-24T06:36:48;10.10;99.90
20998;DHT22;10657;51.276;6.390;2022-12-24T06:39:14;10.10;99.90
20998;DHT22;10657;51.276;6.390;2022-12-24T06:41:41;10.10;99.90
20998;DHT22;10657;51.276;6.390;2022-12-24T06:44:08;10.10;99.90
20998;DHT22;10657;51.276;6.390;2022-12-24T06:46:34;10.10;99.90
20998;DHT22;10657;51.276;6.390;2022-12-24T06:49:01;10.10;99.90
20998;DHT22;10657;51.276;6.390;2022-12-24T06:51:28;10.10;99.90
20998;DHT22;10657;51.276;6.390;2022-12-24T06:53:54;10.10;99.90
20998;DHT22;10657;51.276;6.390;2022-12-24T06:56:21;10.10;99.90
20998;DHT22;10657;51.276;6.390;2022-12-24T06:58:48;10.10;99.90
20998;DHT22;10657;51.276;6.390;2022-12-24T07:01:16;10.10;99.90
20998;DHT22;10657;51.276;6.390;2022-12-24T07:03:45;10.00;99.90
20998;DHT22;10657;51.276;6.390;2022-12-24T07:06:25;10.00;99.90
20998;DHT22;10657;51.276;6.390;2022-12-24T07:08:53;10.00;99.90
20998;DHT22;10657;51.276;6.390;2022-12-24T07:11:21;10.00;99.90
20998;DHT22;10657;51.276;6.390;2022-12-24T07:13:48;10.00;99.90
20998;DHT22;10657;51.276;6.390;2022-12-24T07:16:15;10.00;99.90
20998;DHT22;10657;51.276;6.390;2022-12-24T07:18:43;9.90;99.90
20998;DHT22;10657;51.276;6.390;2022-12-24T07:21:09;9.90;99.90
20998;DHT22;10657;51.276;6.390;2022-12-24T07:23:36;9.90;99.90
20998;DHT22;10657;51.276;6.390;2022-12-24T07:26:04;9.90;99.90
20998;DHT22;10657;51.276;6.390;2022-12-24T07:28:31;9.90;99.90
20998;DHT22;10657;51.276;6.390;2022-12-24T07:30:58;9.90;99.90
20998;DHT22;10657;51.276;6.390;2022-12-24T07:33:25;9.90;99.90
20998;DHT22;10657;51.276;6.390;2022-12-24T07:36:06;9.90;99.90
20998;DHT22;10657;51.276;6.390;2022-12-24T07:38:33;9.90;99.90
20998;DHT22;10657;51.276;6.390;2022-12-24T07:41:00;9.90;99.90
20998;DHT22;10657;51.276;6.390;2022-12-24T07:43:27;9.90;99.90
20998;DHT22;10657;51.276;6.390;2022-12-24T07:45:55;9.90;99.90
20998;DHT22;10657;51.276;6.390;2022-12-24T07:48:23;9.90;99.90
20998;DHT22;10657;51.276;6.390;2022-12-24T07:50:51;9.90;99.90
20998;DHT22;10657;51.276;6.390;2022-12-24T07:53:18;9.90;99.90
20998;DHT22;10657;51.276;6.390;2022-12-24T07:55:44;9.90;99.90
20998;DHT22;10657;51.276;6.390;2022-12-24T07:58:11;9.90;99.90
20998;DHT22;10657;51.276;6.390;2022-12-24T08:00:38;9.90;99.90
20998;DHT22;10657;51.276;6.390;2022-12-24T08:03:04;9.90;99.90
20998;DHT22;10657;51.276;6.390;2022-12-24T08:05:35;9.90;99.90
20998;DHT22;10657;51.276;6.390;2022-12-24T08:08:02;10.00;99.90
20998;DHT22;10657;51.276;6.390;2022-12-24T08:10:28;10.00;99.90
20998;DHT22;10657;51.276;6.390;2022-12-24T08:12:55;10.00;99.90
20998;DHT22;10657;51.276;6.390;2022-12-24T08:15:21;10.00;99.90
20998;DHT22;10657;51.276;6.390;2022-12-24T08:17:48;10.00;99.90
20998;DHT22;10657;51.276;6.390;2022-12-24T08:20:15;10.10;99.90
20998;DHT22;10657;51.276;6.390;2022-12-24T08:22:42;10.10;99.90
20998;DHT22;10657;51.276;6.390;2022-12-24T08:25:09;10.10;99.90
20998;DHT22;10657;51.276;6.390;2022-12-24T08:27:36;10.10;99.90
20998;DHT22;10657;51.276;6.390;2022-12-24T08:30:03;10.10;99.90
20998;DHT22;10657;51.276;6.390;2022-12-24T08:32:30;10.20;99.90
20998;DHT22;10657;51.276;6.390;2022-12-24T08:34:57;10.20;99.90
20998;DHT22;10657;51.276;6.390;2022-12-24T08:37:23;10.20;99.90
20998;DHT22;10657;51.276;6.390;2022-12-24T08:39:50;10.30;99.90
20998;DHT22;10657;51.276;6.390;2022-12-24T08:42:17;10.30;99.90
20998;DHT22;10657;51.276;6.390;2022-12-24T08:44:43;10.30;99.90
20998;DHT22;10657;51.276;6.390;2022-12-24T08:47:10;10.20;99.90
20998;DHT22;10657;51.276;6.390;2022-12-24T08:49:37;10.30;99.90
20998;DHT22;10657;51.276;6.390;2022-12-24T08:52:05;10.30;99.90
20998;DHT22;10657;51.276;6.390;2022-12-24T08:54:32;10.30;99.90
20998;DHT22;10657;51.276;6.390;2022-12-24T08:56:58;10.30;99.90
20998;DHT22;10657;51.276;6.390;2022-12-24T08:59:25;10.30;99.90
20998;DHT22;10657;51.276;6.390;2022-12-24T09:01:51;10.20;99.90
20998;DHT22;10657;51.276;6.390;2022-12-24T09:04:18;10.30;99.90
20998;DHT22;10657;51.276;6.390;2022-12-24T09:06:45;10.30;99.90
20998;DHT22;10657;51.276;6.390;2022-12-24T09:09:12;10.20;99.90
20998;DHT22;10657;51.276;6.390;2022-12-24T09:11:38;10.20;99.90
20998;DHT22;10657;51.276;6.390;2022-12-24T09:14:05;10.20;99.90
20998;DHT22;10657;51.276;6.390;2022-12-24T09:16:32;10.20;99.90
20998;DHT22;10657;51.276;6.390;2022-12-24T09:18:59;10.20;99.90
20998;DHT22;10657;51.276;6.390;2022-12-24T09:21:25;10.30;99.90
20998;DHT22;10657;51.276;6.390;2022-12-24T09:23:52;10.20;99.90
20998;DHT22;10657;51.276;6.390;2022-12-24T09:26:25;10.30;99.90
20998;DHT22;10657;51.276;6.390;2022-12-24T09:28:52;10.20;99.90
20998;DHT22;10657;51.276;6.390;2022-12-24T09:31:19;10.30;99.90
20998;DHT22;10657;51.276;6.390;2022-12-24T09:33:48;10.30;99.90
20998;DHT22;10657;51.276;6.390;2022-12-24T09:36:16;10.30;99.90
20998;DHT22;10657;51.276;6.390;2022-12-24T09:38:43;10.30;99.90
20998;DHT22;10657;51.276;6.390;2022-12-24T09:44:10;10.30;99.90
20998;DHT22;10657;51.276;6.390;2022-12-24T09:46:42;10.30;99.90
20998;DHT22;10657;51.276;6.390;2022-12-24T09:49:19;10.40;99.90
20998;DHT22;10657;51.276;6.390;2022-12-24T09:51:58;10.40;99.90
20998;DHT22;10657;51.276;6.390;2022-12-24T09:54:31;10.40;99.90
20998;DHT22;10657;51.276;6.390;2022-12-24T09:57:03;10.40;99.90
20998;DHT22;10657;51.276;6.390;2022-12-24T09:59:41;10.40;99.90
20998;DHT22;10657;51.276;6.390;2022-12-24T10:02:14;10.50;99.90
20998;DHT22;10657;51.276;6.390;2022-12-24T10:04:43;10.50;99.90
20998;DHT22;10657;51.276;6.390;2022-12-24T10:07:33;10.50;99.90
20998;DHT22;10657;51.276;6.390;2022-12-24T10:10:19;10.50;99.90
20998;DHT22;10657;51.276;6.390;2022-12-24T10:13:21;10.50;99.90
20998;DHT22;10657;51.276;6.390;2022-12-24T10:19:09;10.50;99.90
20998;DHT22;10657;51.276;6.390;2022-12-24T10:24:59;10.50;99.90
20998;DHT22;10657;51.276;6.390;2022-12-24T10:27:34;10.50;99.90
20998;DHT22;10657;51.276;6.390;2022-12-24T10:30:06;10.50;99.90
20998;DHT22;10657;51.276;6.390;2022-12-24T10:32:43;10.60;99.90
20998;DHT22;10657;51.276;6.390;2022-12-24T10:35:34;10.60;99.90
20998;DHT22;10657;51.276;6.390;2022-12-24T10:38:02;10.50;99.90
20998;DHT22;10657;51.276;6.390;2022-12-24T10:40:44;10.60;99.90
20998;DHT22;10657;51.276;6.390;2022-12-24T10:43:21;10.60;99.90
20998;DHT22;10657;51.276;6.390;2022-12-24T10:45:57;10.60;99.90
20998;DHT22;10657;51.276;6.390;2022-12-24T10:48:28;10.50;99.90
20998;DHT22;10657;51.276;6.390;2022-12-24T10:51:05;10.50;99.90
20998;DHT22;10657;51.276;6.390;2022-12-24T10:56:06;10.60;99.90
20998;DHT22;10657;51.276;6.390;2022-12-24T10:58:33;10.60;99.90
20998;DHT22;10657;51.276;6.390;2022-12-24T11:01:01;10.70;99.90
20998;DHT22;10657;51.276;6.390;2022-12-24T11:08:32;10.90;99.90
20998;DHT22;10657;51.276;6.390;2022-12-24T11:11:05;10.90;99.90
20998;DHT22;10657;51.276;6.390;2022-12-24T11:13:39;11.00;99.90
20998;DHT22;10657;51.276;6.390;2022-12-24T11:18:54;10.90;99.90
20998;DHT22;10657;51.276;6.390;2022-12-24T11:21:27;11.00;99.90
20998;DHT22;10657;51.276;6.390;2022-12-24T11:23:56;11.00;99.90
20998;DHT22;10657;51.276;6.390;2022-12-24T11:26:26;11.00;99.90
20998;DHT22;10657;51.276;6.390;2022-12-24T11:31:43;11.10;99.90
20998;DHT22;10657;51.276;6.390;2022-12-24T11:34:36;11.10;99.90
20998;DHT22;10657;51.276;6.390;2022-12-24T11:37:15;11.20;99.90
20998;DHT22;10657;51.276;6.390;2022-12-24T11:39:59;11.10;99.90
20998;DHT22;10657;51.276;6.390;2022-12-24T11:42:35;11.10;99.90
20998;DHT22;10657;51.276;6.390;2022-12-24T11:45:17;11.10;99.90
20998;DHT22;10657;51.276;6.390;2022-12-24T11:47:45;11.10;99.90
20998;DHT22;10657;51.276;6.390;2022-12-24T11:50:36;11.10;99.90
20998;DHT22;10657;51.276;6.390;2022-12-24T11:55:48;11.20;99.90
20998;DHT22;10657;51.276;6.390;2022-12-24T12:01:22;11.30;99.90
20998;DHT22;10657;51.276;6.390;2022-12-24T12:04:17;11.40;99.90
20998;DHT22;10657;51.276;6.390;2022-12-24T12:06:58;11.50;99.90
20998;DHT22;10657;51.276;6.390;2022-12-24T12:09:29;11.50;99.90
20998;DHT22;10657;51.276;6.390;2022-12-24T12:12:45;11.60;99.90
20998;DHT22;10657;51.276;6.390;2022-12-24T12:15:16;11.60;99.90
20998;DHT22;10657;51.276;6.390;2022-12-24T12:17:56;11.50;99.90
20998;DHT22;10657;51.276;6.390;2022-12-24T12:20:40;11.60;99.90
20998;DHT22;10657;51.276;6.390;2022-12-24T12:23:15;11.60;99.90
20998;DHT22;10657;51.276;6.390;2022-12-24T12:26:29;11.60;99.90
20998;DHT22;10657;51.276;6.390;2022-12-24T12:28:58;11.60;99.90
20998;DHT22;10657;51.276;6.390;2022-12-24T12:31:43;11.60;99.90
20998;DHT22;10657;51.276;6.390;2022-12-24T12:34:17;11.60;99.90
20998;DHT22;10657;51.276;6.390;2022-12-24T12:36:51;11.60;99.90
20998;DHT22;10657;51.276;6.390;2022-12-24T12:39:18;11.50;99.90
20998;DHT22;10657;51.276;6.390;2022-12-24T12:56:21;11.70;99.90
20998;DHT22;10657;51.276;6.390;2022-12-24T12:59:00;11.70;99.90
20998;DHT22;10657;51.276;6.390;2022-12-24T13:01:44;11.70;99.90
20998;DHT22;10657;51.276;6.390;2022-12-24T13:12:59;11.60;99.90
20998;DHT22;10657;51.276;6.390;2022-12-24T13:15:34;11.50;99.90
20998;DHT22;10657;51.276;6.390;2022-12-24T13:20:42;11.50;99.90
20998;DHT22;10657;51.276;6.390;2022-12-24T13:23:14;11.50;99.90
20998;DHT22;10657;51.276;6.390;2022-12-24T13:25:45;11.50;99.90
20998;DHT22;10657;51.276;6.390;2022-12-24T13:30:52;11.50;99.90
20998;DHT22;10657;51.276;6.390;2022-12-24T13:36:17;11.60;99.90
20998;DHT22;10657;51.276;6.390;2022-12-24T13:38:54;11.70;99.90
20998;DHT22;10657;51.276;6.390;2022-12-24T13:44:15;11.80;99.90
20998;DHT22;10657;51.276;6.390;2022-12-24T13:46:51;11.90;99.90
20998;DHT22;10657;51.276;6.390;2022-12-24T13:49:42;11.90;99.90
20998;DHT22;10657;51.276;6.390;2022-12-24T13:54:38;11.90;99.90
20998;DHT22;10657;51.276;6.390;2022-12-24T13:57:39;11.90;99.90
20998;DHT22;10657;51.276;6.390;2022-12-24T14:00:26;11.90;99.90
20998;DHT22;10657;51.276;6.390;2022-12-24T14:03:21;12.00;99.90
20998;DHT22;10657;51.276;6.390;2022-12-24T14:08:49;11.90;99.90
20998;DHT22;10657;51.276;6.390;2022-12-24T14:11:20;11.90;99.90
20998;DHT22;10657;51.276;6.390;2022-12-24T14:16:22;11.90;99.90
20998;DHT22;10657;51.276;6.390;2022-12-24T14:19:13;11.80;99.90
20998;DHT22;10657;51.276;6.390;2022-12-24T14:22:02;11.70;99.90
20998;DHT22;10657;51.276;6.390;2022-12-24T14:24:36;11.70;99.90
20998;DHT22;10657;51.276;6.390;2022-12-24T14:27:32;11.60;99.90
20998;DHT22;10657;51.276;6.390;2022-12-24T14:32:37;11.60;99.90
20998;DHT22;10657;51.276;6.390;2022-12-24T14:35:25;11.60;99.90
20998;DHT22;10657;51.276;6.390;2022-12-24T14:38:13;11.50;99.90
20998;DHT22;10657;51.276;6.390;2022-12-24T14:43:49;11.60;99.90
20998;DHT22;10657;51.276;6.390;2022-12-24T14:46:39;11.60;99.90
20998;DHT22;10657;51.276;6.390;2022-12-24T14:52:12;11.60;99.90
20998;DHT22;10657;51.276;6.390;2022-12-24T14:55:28;11.60;99.90
20998;DHT22;10657;51.276;6.390;2022-12-24T14:58:32;11.40;99.90
20998;DHT22;10657;51.276;6.390;2022-12-24T15:01:17;11.40;99.90
20998;DHT22;10657;51.276;6.390;2022-12-24T15:03:44;11.30;99.90
20998;DHT22;10657;51.276;6.390;2022-12-24T15:06:12;11.30;99.90
20998;DHT22;10657;51.276;6.390;2022-12-24T15:08:43;11.20;99.90
20998;DHT22;10657;51.276;6.390;2022-12-24T15:11:16;11.10;99.90
20998;DHT22;10657;51.276;6.390;2022-12-24T15:13:46;11.10;99.90
20998;DHT22;10657;51.276;6.390;2022-12-24T15:16:25;11.10;99.90
20998;DHT22;10657;51.276;6.390;2022-12-24T15:18:55;11.10;99.90
20998;DHT22;10657;51.276;6.390;2022-12-24T15:21:36;11.00;99.90
20998;DHT22;10657;51.276;6.390;2022-12-24T15:26:52;10.90;99.90
20998;DHT22;10657;51.276;6.390;2022-12-24T15:29:25;10.90;99.90
20998;DHT22;10657;51.276;6.390;2022-12-24T15:31:59;10.90;99.90
20998;DHT22;10657;51.276;6.390;2022-12-24T15:34:36;10.90;99.90
20998;DHT22;10657;51.276;6.390;2022-12-24T15:37:27;10.80;99.90
20998;DHT22;10657;51.276;6.390;2022-12-24T15:40:06;10.80;99.90
20998;DHT22;10657;51.276;6.390;2022-12-24T15:42:34;10.70;99.90
20998;DHT22;10657;51.276;6.390;2022-12-24T15:47:42;10.70;99.90
20998;DHT22;10657;51.276;6.390;2022-12-24T15:52:48;10.60;99.90
20998;DHT22;10657;51.276;6.390;2022-12-24T15:55:39;10.60;99.90
20998;DHT22;10657;51.276;6.390;2022-12-24T15:58:23;10.50;99.90
20998;DHT22;10657;51.276;6.390;2022-12-24T16:03:26;10.40;99.90
20998;DHT22;10657;51.276;6.390;2022-12-24T16:06:10;10.50;99.90
20998;DHT22;10657;51.276;6.390;2022-12-24T16:08:39;10.40;99.90
20998;DHT22;10657;51.276;6.390;2022-12-24T16:11:17;10.40;99.90
20998;DHT22;10657;51.276;6.390;2022-12-24T16:16:32;10.30;99.90
20998;DHT22;10657;51.276;6.390;2022-12-24T16:19:00;10.30;99.90
20998;DHT22;10657;51.276;6.390;2022-12-24T16:21:39;10.30;99.90
20998;DHT22;10657;51.276;6.390;2022-12-24T16:24:21;10.30;99.90
20998;DHT22;10657;51.276;6.390;2022-12-24T16:26:48;10.20;99.90
20998;DHT22;10657;51.276;6.390;2022-12-24T16:29:17;10.20;99.90
20998;DHT22;10657;51.276;6.390;2022-12-24T16:34:15;10.20;99.90
20998;DHT22;10657;51.276;6.390;2022-12-24T16:36:44;10.10;99.90
20998;DHT22;10657;51.276;6.390;2022-12-24T16:39:19;10.10;99.90
20998;DHT22;10657;51.276;6.390;2022-12-24T16:42:09;10.10;99.90
20998;DHT22;10657;51.276;6.390;2022-12-24T16:44:55;10.00;99.90
20998;DHT22;10657;51.276;6.390;2022-12-24T16:47:25;10.00;99.90
20998;DHT22;10657;51.276;6.390;2022-12-24T16:49:53;10.00;99.90
20998;DHT22;10657;51.276;6.390;2022-12-24T16:52:22;9.90;99.90
20998;DHT22;10657;51.276;6.390;2022-12-24T16:54:51;10.00;99.90
20998;DHT22;10657;51.276;6.390;2022-12-24T16:57:18;9.90;99.90
20998;DHT22;10657;51.276;6.390;2022-12-24T16:59:45;9.90;99.90
20998;DHT22;10657;51.276;6.390;2022-12-24T17:02:14;9.90;99.90
20998;DHT22;10657;51.276;6.390;2022-12-24T17:04:42;9.90;99.90
20998;DHT22;10657;51.276;6.390;2022-12-24T17:07:13;9.90;99.90
20998;DHT22;10657;51.276;6.390;2022-12-24T17:09:40;9.90;99.90
20998;DHT22;10657;51.276;6.390;2022-12-24T17:12:07;9.80;99.90
20998;DHT22;10657;51.276;6.390;2022-12-24T17:14:34;9.80;99.90
20998;DHT22;10657;51.276;6.390;2022-12-24T17:17:00;9.80;99.90
20998;DHT22;10657;51.276;6.390;2022-12-24T17:19:27;9.80;99.90
20998;DHT22;10657;51.276;6.390;2022-12-24T17:21:53;9.70;99.90
20998;DHT22;10657;51.276;6.390;2022-12-24T17:24:20;9.70;99.90
20998;DHT22;10657;51.276;6.390;2022-12-24T17:26:47;9.70;99.90
20998;DHT22;10657;51.276;6.390;2022-12-24T17:29:13;9.70;99.90
20998;DHT22;10657;51.276;6.390;2022-12-24T17:31:40;9.60;99.90
20998;DHT22;10657;51.276;6.390;2022-12-24T17:34:09;9.70;99.90
20998;DHT22;10657;51.276;6.390;2022-12-24T17:36:35;9.60;99.90
20998;DHT22;10657;51.276;6.390;2022-12-24T17:39:02;9.60;99.90
20998;DHT22;10657;51.276;6.390;2022-12-24T17:41:29;9.60;99.90
20998;DHT22;10657;51.276;6.390;2022-12-24T17:43:57;9.60;99.90
20998;DHT22;10657;51.276;6.390;2022-12-24T17:46:24;9.60;99.90
20998;DHT22;10657;51.276;6.390;2022-12-24T17:48:51;9.60;99.90
20998;DHT22;10657;51.276;6.390;2022-12-24T17:51:20;9.50;99.90